createdAt,value
2018-12-27T00:01:35.257Z,1.00
2018-12-27T00:04:05.294Z,1.00
2018-12-27T00:06:34.077Z,1.00
2018-12-27T00:09:02.319Z,1.00
2018-12-27T00:11:30.628Z,1.10
2018-12-27T00:13:58.917Z,1.10
2018-12-27T00:16:27.749Z,1.20
2018-12-27T00:18:55.990Z,1.20
2018-12-27T00:21:24.234Z,1.10
2018-12-27T00:23:53.710Z,1.00
2018-12-27T00:26:21.923Z,1.00
2018-12-27T00:28:50.378Z,0.90
2018-12-27T00:31:18.617Z,0.90
2018-12-27T00:33:46.889Z,0.90
2018-12-27T00:36:15.318Z,0.90
2018-12-27T00:38:43.598Z,0.90
2018-12-27T00:41:11.913Z,0.90
2018-12-27T00:43:40.818Z,0.90
2018-12-27T00:46:09.169Z,1.00
2018-12-27T00:48:37.435Z,0.90
2018-12-27T00:51:07.142Z,0.90
2018-12-27T00:53:35.885Z,0.90
2018-12-27T00:56:04.140Z,0.80
2018-12-27T00:58:32.815Z,0.70
2018-12-27T01:01:01.044Z,0.80
2018-12-27T01:03:29.893Z,0.90
2018-12-27T01:05:58.505Z,0.90
2018-12-27T01:08:26.748Z,0.90
2018-12-27T01:10:54.981Z,0.90
2018-12-27T01:13:23.185Z,1.00
2018-12-27T01:15:51.497Z,0.90
2018-12-27T01:18:19.689Z,0.90
2018-12-27T01:20:54.685Z,1.00
2018-12-27T01:23:22.968Z,0.90
2018-12-27T01:25:51.286Z,0.90
2018-12-27T01:28:19.541Z,1.00
2018-12-27T01:30:48.359Z,1.00
2018-12-27T01:33:18.829Z,1.00
2018-12-27T01:35:44.942Z,1.10
2018-12-27T01:38:13.258Z,1.10
2018-12-27T01:40:41.498Z,1.10
2018-12-27T01:43:09.686Z,1.00
2018-12-27T01:45:37.939Z,1.00
2018-12-27T01:48:06.249Z,0.90
2018-12-27T01:50:34.608Z,1.00
2018-12-27T01:53:03.753Z,1.10
2018-12-27T01:55:33.014Z,1.10
2018-12-27T01:58:01.450Z,1.10
2018-12-27T02:00:29.702Z,1.20
2018-12-27T02:02:57.929Z,1.00
2018-12-27T02:05:26.210Z,1.00
2018-12-27T02:07:54.432Z,1.00
2018-12-27T02:10:23.630Z,1.00
2018-12-27T02:12:52.597Z,1.10
2018-12-27T02:15:20.858Z,1.10
2018-12-27T02:17:49.110Z,1.10
2018-12-27T02:20:17.325Z,1.10
2018-12-27T02:22:45.634Z,1.00
2018-12-27T02:25:14.004Z,0.70
2018-12-27T02:27:42.226Z,0.80
2018-12-27T02:30:10.504Z,0.80
2018-12-27T02:32:38.722Z,0.80
2018-12-27T02:35:06.922Z,0.70
2018-12-27T02:37:35.177Z,0.80
2018-12-27T02:40:03.397Z,0.70
2018-12-27T02:42:31.655Z,0.70
2018-12-27T02:44:59.993Z,0.70
2018-12-27T02:47:28.245Z,0.70
2018-12-27T02:49:56.434Z,0.70
2018-12-27T02:52:24.861Z,0.80
2018-12-27T02:54:53.201Z,0.70
2018-12-27T02:57:21.677Z,0.70
2018-12-27T02:59:49.927Z,0.60
2018-12-27T03:02:18.190Z,0.70
2018-12-27T03:04:46.423Z,0.70
2018-12-27T03:07:14.867Z,0.90
2018-12-27T03:09:43.082Z,0.90
2018-12-27T03:12:11.790Z,0.90
2018-12-27T03:14:40.500Z,1.00
2018-12-27T03:17:08.701Z,1.10
2018-12-27T03:19:37.941Z,1.10
2018-12-27T03:22:06.139Z,1.10
2018-12-27T03:24:34.330Z,1.20
2018-12-27T03:27:02.858Z,1.20
2018-12-27T03:29:31.037Z,1.20
2018-12-27T03:31:59.267Z,1.20
2018-12-27T03:34:28.098Z,1.20
2018-12-27T03:36:56.328Z,1.10
2018-12-27T03:39:24.634Z,1.10
2018-12-27T03:41:53.894Z,1.20
2018-12-27T03:44:22.985Z,1.10
2018-12-27T03:46:52.296Z,1.10
2018-12-27T03:49:20.554Z,1.30
2018-12-27T03:51:49.830Z,1.30
2018-12-27T03:54:18.047Z,1.30
2018-12-27T03:56:46.272Z,1.30
2018-12-27T03:59:14.472Z,1.30
2018-12-27T04:01:43.444Z,1.40
2018-12-27T04:04:11.741Z,1.40
2018-12-27T04:06:40.051Z,1.50
2018-12-27T04:09:08.290Z,1.50
2018-12-27T04:11:37.472Z,1.40
2018-12-27T04:14:05.656Z,1.50
2018-12-27T04:16:34.691Z,1.60
2018-12-27T04:19:02.927Z,1.60
2018-12-27T04:21:31.286Z,1.50
2018-12-27T04:23:59.533Z,1.50
2018-12-27T04:26:28.218Z,1.50
2018-12-27T04:28:56.493Z,1.50
2018-12-27T04:31:24.851Z,1.60
2018-12-27T04:33:54.329Z,1.50
2018-12-27T04:36:23.975Z,1.40
2018-12-27T04:38:52.246Z,1.50
2018-12-27T04:41:20.482Z,1.50
2018-12-27T04:43:48.744Z,1.50
2018-12-27T04:46:16.999Z,1.50
2018-12-27T04:48:45.949Z,1.40
2018-12-27T04:51:14.206Z,1.50
2018-12-27T04:53:42.433Z,1.40
2018-12-27T04:56:10.777Z,1.40
2018-12-27T04:58:39.068Z,1.40
2018-12-27T05:01:07.309Z,1.40
2018-12-27T05:03:36.478Z,1.40
2018-12-27T05:06:05.124Z,1.50
2018-12-27T05:08:33.697Z,1.60
2018-12-27T05:11:01.958Z,1.50
2018-12-27T05:13:30.151Z,1.50
2018-12-27T05:15:59.365Z,1.50
2018-12-27T05:18:27.629Z,1.50
2018-12-27T05:20:55.857Z,1.50
2018-12-27T05:23:24.118Z,1.30
2018-12-27T05:25:52.409Z,1.30
2018-12-27T05:28:20.638Z,1.40
2018-12-27T05:30:48.874Z,1.40
2018-12-27T05:33:17.085Z,1.40
2018-12-27T05:35:45.347Z,1.40
2018-12-27T05:38:14.569Z,1.30
2018-12-27T05:40:42.921Z,1.30
2018-12-27T05:43:11.170Z,1.30
2018-12-27T05:45:39.868Z,1.30
2018-12-27T05:48:08.130Z,1.30
2018-12-27T05:50:36.389Z,1.30
2018-12-27T05:53:04.649Z,1.40
2018-12-27T05:55:34.430Z,1.40
2018-12-27T05:58:01.705Z,1.50
2018-12-27T06:00:30.941Z,1.40
2018-12-27T06:02:59.272Z,1.40
2018-12-27T06:05:27.859Z,1.30
2018-12-27T06:07:56.141Z,1.30
2018-12-27T06:10:24.724Z,1.40
2018-12-27T06:12:54.252Z,1.40
2018-12-27T06:15:22.460Z,1.40
2018-12-27T06:17:51.035Z,1.30
2018-12-27T06:20:19.481Z,1.30
2018-12-27T06:22:48.403Z,1.30
2018-12-27T06:25:16.684Z,1.50
2018-12-27T06:27:45.821Z,1.40
2018-12-27T06:30:14.104Z,1.50
2018-12-27T06:32:42.350Z,1.40
2018-12-27T06:35:10.559Z,1.30
2018-12-27T06:37:38.824Z,1.30
2018-12-27T06:40:07.808Z,1.30
2018-12-27T06:42:36.009Z,1.40
2018-12-27T06:45:04.505Z,1.40
2018-12-27T06:47:32.784Z,1.40
2018-12-27T06:50:01.110Z,1.30
2018-12-27T06:52:29.381Z,1.30
2018-12-27T06:54:58.161Z,1.30
2018-12-27T06:57:26.427Z,1.30
2018-12-27T06:59:54.693Z,1.30
2018-12-27T07:02:23.206Z,1.30
2018-12-27T07:04:51.537Z,1.40
2018-12-27T07:07:20.265Z,1.40
2018-12-27T07:09:48.545Z,1.30
2018-12-27T07:12:17.112Z,1.20
2018-12-27T07:14:45.599Z,1.20
2018-12-27T07:17:13.825Z,1.30
2018-12-27T07:19:42.104Z,1.30
2018-12-27T07:22:10.358Z,1.30
2018-12-27T07:24:39.409Z,1.30
2018-12-27T07:27:07.723Z,1.30
2018-12-27T07:29:38.077Z,1.40
2018-12-27T07:32:06.325Z,1.40
2018-12-27T07:34:34.639Z,1.50
2018-12-27T07:37:02.842Z,1.40
2018-12-27T07:39:31.071Z,1.30
2018-12-27T07:41:59.262Z,1.30
2018-12-27T07:44:28.105Z,1.30
2018-12-27T07:46:56.373Z,1.20
2018-12-27T07:49:24.617Z,1.20
2018-12-27T07:51:53.182Z,1.30
2018-12-27T07:54:21.686Z,1.20
2018-12-27T07:56:49.899Z,1.10
2018-12-27T07:59:19.211Z,1.10
2018-12-27T08:04:22.374Z,0.90
2018-12-27T08:06:50.649Z,1.10
2018-12-27T08:09:18.914Z,1.20
2018-12-27T08:11:47.193Z,1.10
2018-12-27T08:14:15.426Z,0.90
2018-12-27T08:16:44.298Z,1.00
2018-12-27T08:19:12.621Z,1.00
2018-12-27T08:21:40.837Z,1.00
2018-12-27T08:24:10.319Z,0.90
2018-12-27T08:26:38.619Z,1.00
2018-12-27T08:29:06.887Z,0.90
2018-12-27T08:31:35.847Z,0.90
2018-12-27T08:34:04.073Z,1.00
2018-12-27T08:36:32.385Z,1.10
2018-12-27T08:39:00.662Z,1.10
2018-12-27T08:41:29.756Z,1.10
2018-12-27T08:43:58.036Z,1.20
2018-12-27T08:46:26.269Z,1.20
2018-12-27T08:48:54.478Z,1.20
2018-12-27T08:51:22.729Z,1.00
2018-12-27T08:53:51.453Z,1.00
2018-12-27T08:56:19.843Z,1.00
2018-12-27T08:58:48.097Z,1.10
2018-12-27T09:01:17.016Z,1.00
2018-12-27T09:03:45.221Z,1.00
2018-12-27T09:06:13.478Z,1.20
2018-12-27T09:08:42.674Z,1.20
2018-12-27T09:11:10.902Z,1.30
2018-12-27T09:13:39.410Z,1.30
2018-12-27T09:16:07.629Z,1.30
2018-12-27T09:18:35.905Z,1.30
2018-12-27T09:21:04.101Z,1.60
2018-12-27T09:23:32.357Z,1.70
2018-12-27T09:26:01.286Z,1.70
2018-12-27T09:28:29.517Z,1.70
2018-12-27T09:30:57.741Z,1.60
2018-12-27T09:33:26.034Z,1.60
2018-12-27T09:35:54.253Z,1.70
2018-12-27T09:38:22.658Z,1.60
2018-12-27T09:40:50.867Z,1.60
2018-12-27T09:43:19.973Z,1.50
2018-12-27T09:45:48.222Z,1.60
2018-12-27T09:48:16.440Z,1.70
2018-12-27T09:50:44.689Z,1.60
2018-12-27T09:53:13.161Z,1.70
2018-12-27T09:55:41.389Z,1.80
2018-12-27T09:58:10.177Z,1.90
2018-12-27T10:00:39.914Z,1.90
2018-12-27T10:03:07.392Z,2.00
2018-12-27T10:05:35.714Z,2.00
2018-12-27T10:08:04.002Z,1.90
2018-12-27T10:10:33.612Z,1.90
2018-12-27T10:13:01.805Z,1.90
2018-12-27T10:15:30.153Z,1.80
2018-12-27T10:17:58.601Z,1.80
2018-12-27T10:20:26.832Z,1.90
2018-12-27T10:22:55.086Z,1.90
2018-12-27T10:25:23.953Z,2.10
2018-12-27T10:27:52.208Z,2.00
2018-12-27T10:30:21.360Z,2.10
2018-12-27T10:32:50.604Z,2.10
2018-12-27T10:35:18.920Z,1.80
2018-12-27T10:37:47.138Z,1.60
2018-12-27T10:40:15.375Z,1.60
2018-12-27T10:42:43.650Z,1.60
2018-12-27T10:45:12.487Z,1.70
2018-12-27T10:47:40.774Z,1.90
2018-12-27T10:50:09.325Z,2.00
2018-12-27T10:52:37.576Z,2.20
2018-12-27T10:55:06.160Z,2.30
2018-12-27T10:57:34.944Z,2.40
2018-12-27T11:00:03.093Z,2.50
2018-12-27T11:02:31.362Z,2.40
2018-12-27T11:04:59.606Z,2.40
2018-12-27T11:07:27.816Z,2.40
2018-12-27T11:09:56.077Z,2.50
2018-12-27T11:12:24.313Z,2.30
2018-12-27T11:14:53.200Z,2.30
2018-12-27T11:17:21.477Z,2.50
2018-12-27T11:19:49.705Z,2.40
2018-12-27T11:22:17.986Z,2.40
2018-12-27T11:24:46.498Z,2.60
2018-12-27T11:27:14.907Z,2.50
2018-12-27T11:29:43.889Z,2.40
2018-12-27T11:32:12.583Z,2.40
2018-12-27T11:34:40.834Z,2.60
2018-12-27T11:37:09.110Z,2.70
2018-12-27T11:39:37.921Z,2.80
2018-12-27T11:42:06.164Z,2.80
2018-12-27T11:44:34.480Z,2.60
2018-12-27T11:47:03.570Z,2.50
2018-12-27T11:49:32.581Z,2.50
2018-12-27T11:52:00.865Z,2.50
2018-12-27T11:54:29.948Z,2.40
2018-12-27T11:56:58.217Z,2.40
2018-12-27T11:59:26.452Z,2.40
2018-12-27T12:01:54.645Z,2.50
2018-12-27T12:04:22.883Z,2.40
2018-12-27T12:06:51.070Z,2.30
2018-12-27T12:09:19.979Z,2.40
2018-12-27T12:11:48.400Z,2.40
2018-12-27T12:14:17.656Z,2.50
2018-12-27T12:16:45.867Z,2.40
2018-12-27T12:19:14.657Z,2.40
2018-12-27T12:21:42.934Z,2.30
2018-12-27T12:24:11.197Z,2.20
2018-12-27T12:26:39.438Z,2.10
2018-12-27T12:29:07.736Z,1.80
2018-12-27T12:31:36.006Z,1.80
2018-12-27T12:34:04.839Z,2.00
2018-12-27T12:36:33.145Z,2.20
2018-12-27T12:39:01.457Z,2.10
2018-12-27T12:41:29.646Z,2.00
2018-12-27T12:43:57.966Z,1.80
2018-12-27T12:46:26.437Z,1.80
2018-12-27T12:48:54.877Z,1.80
2018-12-27T12:51:24.766Z,1.70
2018-12-27T12:53:53.041Z,1.70
2018-12-27T12:56:21.434Z,1.70
2018-12-27T12:58:49.677Z,1.70
2018-12-27T13:01:17.933Z,1.70
2018-12-27T13:03:46.160Z,1.70
2018-12-27T13:06:17.934Z,1.80
2018-12-27T13:08:42.631Z,1.50
2018-12-27T13:11:11.188Z,1.50
2018-12-27T13:13:39.487Z,1.60
2018-12-27T13:16:08.325Z,1.70
2018-12-27T13:18:36.867Z,1.70
2018-12-27T13:21:05.486Z,1.80
2018-12-27T13:23:33.790Z,1.90
2018-12-27T13:26:04.231Z,1.90
2018-12-27T13:28:32.497Z,1.70
2018-12-27T13:31:01.726Z,1.80
2018-12-27T13:33:29.965Z,1.90
2018-12-27T13:35:58.810Z,1.70
2018-12-27T13:38:27.117Z,1.70
2018-12-27T13:40:55.421Z,1.70
2018-12-27T13:43:23.882Z,1.70
2018-12-27T13:45:53.145Z,1.80
2018-12-27T13:48:21.367Z,1.80
2018-12-27T13:50:49.902Z,1.90
2018-12-27T13:53:18.721Z,2.00
2018-12-27T13:55:46.973Z,1.80
2018-12-27T13:58:16.381Z,1.70
2018-12-27T14:00:44.665Z,1.70
2018-12-27T14:03:12.874Z,1.90
2018-12-27T14:05:41.101Z,1.80
2018-12-27T14:08:09.321Z,1.80
2018-12-27T14:10:37.590Z,1.70
2018-12-27T14:13:06.073Z,1.70
2018-12-27T14:15:35.309Z,1.60
2018-12-27T14:18:04.141Z,1.50
2018-12-27T14:20:32.397Z,1.60
2018-12-27T14:23:01.204Z,1.50
2018-12-27T14:25:29.444Z,1.50
2018-12-27T14:27:58.699Z,1.50
2018-12-27T14:30:26.993Z,1.50
2018-12-27T14:32:55.490Z,1.60
2018-12-27T14:35:23.676Z,1.50
2018-12-27T14:37:52.044Z,1.50
2018-12-27T14:40:20.535Z,1.70
2018-12-27T14:42:49.419Z,1.70
2018-12-27T14:45:17.720Z,1.70
2018-12-27T14:47:46.293Z,1.80
2018-12-27T14:50:15.157Z,1.80
2018-12-27T14:52:43.441Z,1.90
2018-12-27T14:55:12.498Z,1.90
2018-12-27T14:57:40.742Z,1.80
2018-12-27T15:00:11.270Z,1.70
2018-12-27T15:02:39.549Z,1.60
2018-12-27T15:05:10.834Z,1.60
2018-12-27T15:07:39.050Z,1.50
2018-12-27T15:10:09.085Z,1.50
2018-12-27T15:12:38.147Z,1.50
2018-12-27T15:15:06.394Z,1.40
2018-12-27T15:17:35.798Z,1.30
2018-12-27T15:20:06.892Z,1.30
2018-12-27T15:22:41.841Z,1.40
2018-12-27T15:25:10.660Z,1.50
2018-12-27T15:27:39.417Z,1.50
2018-12-27T15:30:07.633Z,1.60
2018-12-27T15:32:35.863Z,1.60
2018-12-27T15:35:04.181Z,1.60
2018-12-27T15:37:32.882Z,1.60
2018-12-27T15:40:01.401Z,1.50
2018-12-27T15:42:30.513Z,1.50
2018-12-27T15:44:58.793Z,1.50
2018-12-27T15:47:27.112Z,1.50
2018-12-27T15:49:55.785Z,1.40
2018-12-27T15:52:24.038Z,1.40
2018-12-27T15:54:53.117Z,1.40
2018-12-27T15:57:22.081Z,1.40
2018-12-27T15:59:50.290Z,1.30
2018-12-27T16:02:18.540Z,1.30
2018-12-27T16:04:46.817Z,1.30
2018-12-27T16:07:15.697Z,1.30
2018-12-27T16:09:43.922Z,1.40
2018-12-27T16:12:12.173Z,1.40
2018-12-27T16:14:44.455Z,1.30
2018-12-27T16:17:10.889Z,1.30
2018-12-27T16:19:40.097Z,1.30
2018-12-27T16:22:12.073Z,1.40
2018-12-27T16:24:40.319Z,1.40
2018-12-27T16:27:08.563Z,1.30
2018-12-27T16:29:36.768Z,1.30
2018-12-27T16:32:05.018Z,1.30
2018-12-27T16:34:33.226Z,1.20
2018-12-27T16:37:01.438Z,1.30
2018-12-27T16:39:30.382Z,1.20
2018-12-27T16:41:58.661Z,1.30
2018-12-27T16:44:26.955Z,1.20
2018-12-27T16:46:55.242Z,1.20
2018-12-27T16:49:23.497Z,1.20
2018-12-27T16:51:52.582Z,1.30
2018-12-27T16:54:20.858Z,1.30
2018-12-27T16:56:49.245Z,1.30
2018-12-27T16:59:17.539Z,1.30
2018-12-27T17:01:46.683Z,1.20
2018-12-27T17:04:14.918Z,1.30
2018-12-27T17:06:43.154Z,1.40
2018-12-27T17:09:11.405Z,1.40
2018-12-27T17:11:39.668Z,1.40
2018-12-27T17:14:07.930Z,1.40
2018-12-27T17:16:36.921Z,1.50
2018-12-27T17:19:05.795Z,1.50
2018-12-27T17:21:34.044Z,1.60
2018-12-27T17:24:02.289Z,1.60
2018-12-27T17:26:31.464Z,1.50
2018-12-27T17:28:59.759Z,1.50
2018-12-27T17:31:28.172Z,1.40
2018-12-27T17:33:56.425Z,1.40
2018-12-27T17:36:24.670Z,1.50
2018-12-27T17:38:53.165Z,1.50
2018-12-27T17:41:22.034Z,1.50
2018-12-27T17:43:50.369Z,1.40
2018-12-27T17:46:18.594Z,1.50
2018-12-27T17:48:47.557Z,1.40
2018-12-27T17:51:15.804Z,1.50
2018-12-27T17:53:43.981Z,1.30
2018-12-27T17:56:12.234Z,1.20
2018-12-27T17:58:40.513Z,1.20
2018-12-27T18:01:08.746Z,1.20
2018-12-27T18:03:37.709Z,1.30
2018-12-27T18:06:06.645Z,1.20
2018-12-27T18:08:35.085Z,1.20
2018-12-27T18:11:03.322Z,1.20
2018-12-27T18:13:31.549Z,1.10
2018-12-27T18:15:59.788Z,1.10
2018-12-27T18:18:28.094Z,1.10
2018-12-27T18:20:56.317Z,1.00
2018-12-27T18:23:24.534Z,1.00
2018-12-27T18:25:52.746Z,1.10
2018-12-27T18:28:21.025Z,1.20
2018-12-27T18:30:49.294Z,1.20
2018-12-27T18:33:18.911Z,1.20
2018-12-27T18:35:47.406Z,1.20
2018-12-27T18:38:15.657Z,1.20
2018-12-27T18:40:45.739Z,1.30
2018-12-27T18:43:14.015Z,1.40
2018-12-27T18:45:42.293Z,1.30
2018-12-27T18:48:10.552Z,1.20
2018-12-27T18:50:39.176Z,1.20
2018-12-27T18:53:08.457Z,1.20
2018-12-27T18:55:36.774Z,1.10
2018-12-27T18:58:04.985Z,1.20
2018-12-27T19:00:34.045Z,1.20
2018-12-27T19:03:02.321Z,1.20
2018-12-27T19:05:30.637Z,1.20
2018-12-27T19:07:58.938Z,1.20
2018-12-27T19:10:27.243Z,1.20
2018-12-27T19:13:05.977Z,1.20
2018-12-27T19:15:38.966Z,1.30
2018-12-27T19:18:15.956Z,1.30
2018-12-27T19:20:48.306Z,1.20
2018-12-27T19:23:21.504Z,1.20
2018-12-27T19:25:49.728Z,1.30
2018-12-27T19:28:17.972Z,1.30
2018-12-27T19:30:46.209Z,1.30
2018-12-27T19:33:14.647Z,1.40
2018-12-27T19:35:42.884Z,1.30
2018-12-27T19:38:11.137Z,1.20
2018-12-27T19:40:39.427Z,1.10
2018-12-27T19:43:07.717Z,1.20
2018-12-27T19:45:37.006Z,1.30
2018-12-27T19:48:05.271Z,1.20
2018-12-27T19:50:33.545Z,1.20
2018-12-27T19:53:03.037Z,1.20
2018-12-27T19:55:31.285Z,1.20
2018-12-27T19:58:00.206Z,1.00
2018-12-27T20:00:28.746Z,1.00
2018-12-27T20:02:56.981Z,1.10
2018-12-27T20:05:25.342Z,1.20
2018-12-27T20:07:59.294Z,1.30
2018-12-27T20:10:22.317Z,1.20
2018-12-27T20:12:50.578Z,1.20
2018-12-27T20:15:18.859Z,1.30
2018-12-27T20:17:47.078Z,1.30
2018-12-27T20:20:15.288Z,1.40
2018-12-27T20:22:43.557Z,1.60
2018-12-27T20:25:11.853Z,1.60
2018-12-27T20:27:40.566Z,1.70
2018-12-27T20:30:09.789Z,1.70
2018-12-27T20:32:38.389Z,1.70
2018-12-27T20:35:06.746Z,1.60
2018-12-27T20:37:34.966Z,1.60
2018-12-27T20:40:03.857Z,1.60
2018-12-27T20:42:32.745Z,1.60
2018-12-27T20:45:02.440Z,1.60
2018-12-27T20:47:31.076Z,1.60
2018-12-27T20:49:59.300Z,1.50
2018-12-27T20:52:27.645Z,1.40
2018-12-27T20:54:55.939Z,1.50
2018-12-27T20:57:24.151Z,1.40
2018-12-27T20:59:53.022Z,1.50
2018-12-27T21:02:22.257Z,1.60
2018-12-27T21:04:52.049Z,1.60
2018-12-27T21:07:20.972Z,1.60
2018-12-27T21:09:49.209Z,1.70
2018-12-27T21:12:17.464Z,1.70
2018-12-27T21:14:45.712Z,1.40
2018-12-27T21:17:13.992Z,1.30
2018-12-27T21:19:42.461Z,1.20
2018-12-27T21:22:10.697Z,1.20
2018-12-27T21:24:38.930Z,1.20
2018-12-27T21:27:07.484Z,1.30
2018-12-27T21:29:35.672Z,1.30
2018-12-27T21:32:04.141Z,1.30
2018-12-27T21:34:32.401Z,1.20
2018-12-27T21:37:00.640Z,1.20
2018-12-27T21:39:29.539Z,1.20
2018-12-27T21:41:57.801Z,1.20
2018-12-27T21:44:27.385Z,1.30
2018-12-27T21:46:55.636Z,1.50
2018-12-27T21:49:23.838Z,1.60
2018-12-27T21:51:52.989Z,1.60
2018-12-27T21:54:22.806Z,1.60
2018-12-27T21:56:51.419Z,1.60
2018-12-27T21:59:19.991Z,1.60
2018-12-27T22:01:48.213Z,1.50
2018-12-27T22:04:17.649Z,1.40
2018-12-27T22:06:45.901Z,1.40
2018-12-27T22:09:14.775Z,1.50
2018-12-27T22:11:43.006Z,1.60
2018-12-27T22:14:11.248Z,1.60
2018-12-27T22:16:39.468Z,1.70
2018-12-27T22:19:07.802Z,1.70
2018-12-27T22:21:36.138Z,1.70
2018-12-27T22:24:04.370Z,1.70
2018-12-27T22:26:32.582Z,1.70
2018-12-27T22:29:00.824Z,1.70
2018-12-27T22:31:29.163Z,1.70
2018-12-27T22:33:58.057Z,1.70
2018-12-27T22:36:26.891Z,1.70
2018-12-27T22:38:55.125Z,1.80
2018-12-27T22:41:24.389Z,1.70
2018-12-27T22:43:52.951Z,1.70
2018-12-27T22:46:21.279Z,1.80
2018-12-27T22:48:50.309Z,1.80
2018-12-27T22:51:18.538Z,1.80
2018-12-27T22:53:46.801Z,1.70
2018-12-27T22:56:15.053Z,1.70
2018-12-27T22:58:43.399Z,1.70
2018-12-27T23:01:11.656Z,1.70
2018-12-27T23:03:40.381Z,1.80
2018-12-27T23:06:09.712Z,1.70
2018-12-27T23:08:43.022Z,1.80
2018-12-27T23:11:06.269Z,1.70
2018-12-27T23:13:35.101Z,1.70
2018-12-27T23:16:03.681Z,1.60
2018-12-27T23:18:32.549Z,1.60
2018-12-27T23:21:00.788Z,1.80
2018-12-27T23:23:29.026Z,1.90
2018-12-27T23:25:57.855Z,1.90
2018-12-27T23:28:26.085Z,1.90
2018-12-27T23:30:54.324Z,1.90
2018-12-27T23:33:22.497Z,1.90
2018-12-27T23:35:51.332Z,2.00
2018-12-27T23:38:20.473Z,1.90
2018-12-27T23:40:48.724Z,1.90
2018-12-27T23:43:18.584Z,1.90
2018-12-27T23:45:46.821Z,1.80
2018-12-27T23:48:15.034Z,1.90
2018-12-27T23:50:43.289Z,1.80
2018-12-27T23:53:11.529Z,1.80
2018-12-27T23:55:39.750Z,1.80
2018-12-27T23:58:08.605Z,1.60
